Portada
METAR-TAF:

METAR-TAF

Aeroports :

Orange Municipal Airport

Orange, Massachusetts, Estats Units d'Amèrica

latitud: 42-34-18N, longitud: 072-16-39W, altitud: 169 m

Observació

L'informe es va fer fa 41 minuts, a les 22:52 UTC
Vent 9 kt del Est/Sud-Est
Temperatura 21°C
Humitat 38%
Pressió 1024 hPa
Visibilitat: 16.1 km
Cel clar

METAR: KORE 242252Z AUTO 12009KT 10SM CLR 21/06 A3024 RMK AO2 SLP239 T02060056

Hora: 19:33 (23:33 UTC)


TAF: manca

Observacions i pronòstics meteorològics de més de 4000 aeroports (METAR i TAF).

Les estacions disponibles són els punts grocs i vermells al mapa.

Posi el ratolí al punt desitjat per veure el nom de l'estació.

Feu clic per veure les observacions i els pronòstics meteorològics.

Per canviar el mapa: feu clic els botons verds amb una creu de color negre per apropar; al botó verd amb un guió per allunyar la imatge; o en les fletxes verdes per a mapes adjacents.


METAR-TAF: